sensor_id;sensor_type;location;lat;lon;timestamp;P1;durP1;ratioP1;P2;durP2;ratioP2
81351;SDS011;70809;52.184;13.422;2023-08-30T00:00:43;5.00;;;2.00;;
81351;SDS011;70809;52.184;13.422;2023-08-30T00:01:46;4.25;;;2.35;;
81351;SDS011;70809;52.184;13.422;2023-08-30T00:02:47;4.50;;;2.97;;
81351;SDS011;70809;52.184;13.422;2023-08-30T00:03:49;3.50;;;2.25;;
81351;SDS011;70809;52.184;13.422;2023-08-30T00:04:51;3.15;;;2.30;;
81351;SDS011;70809;52.184;13.422;2023-08-30T00:05:53;5.65;;;2.53;;
81351;SDS011;70809;52.184;13.422;2023-08-30T00:06:55;6.65;;;3.13;;
81351;SDS011;70809;52.184;13.422;2023-08-30T00:07:56;4.32;;;2.70;;
81351;SDS011;70809;52.184;13.422;2023-08-30T00:08:58;4.15;;;2.70;;
81351;SDS011;70809;52.184;13.422;2023-08-30T00:10:00;3.78;;;2.78;;
81351;SDS011;70809;52.184;13.422;2023-08-30T00:11:01;4.93;;;2.88;;
81351;SDS011;70809;52.184;13.422;2023-08-30T00:12:04;5.63;;;2.90;;
81351;SDS011;70809;52.184;13.422;2023-08-30T00:13:06;4.10;;;2.65;;
81351;SDS011;70809;52.184;13.422;2023-08-30T00:14:08;4.18;;;2.90;;
81351;SDS011;70809;52.184;13.422;2023-08-30T00:15:09;5.95;;;2.67;;
81351;SDS011;70809;52.184;13.422;2023-08-30T00:16:11;3.60;;;2.42;;
81351;SDS011;70809;52.184;13.422;2023-08-30T00:17:14;2.78;;;2.00;;
81351;SDS011;70809;52.184;13.422;2023-08-30T00:18:15;3.67;;;2.35;;
81351;SDS011;70809;52.184;13.422;2023-08-30T00:19:17;3.55;;;2.08;;
81351;SDS011;70809;52.184;13.422;2023-08-30T00:20:19;3.40;;;2.10;;
81351;SDS011;70809;52.184;13.422;2023-08-30T00:21:21;4.55;;;2.55;;
81351;SDS011;70809;52.184;13.422;2023-08-30T00:22:23;6.43;;;3.00;;
81351;SDS011;70809;52.184;13.422;2023-08-30T00:23:25;6.15;;;2.80;;
81351;SDS011;70809;52.184;13.422;2023-08-30T00:24:26;2.80;;;1.92;;
81351;SDS011;70809;52.184;13.422;2023-08-30T00:25:28;4.30;;;2.38;;
81351;SDS011;70809;52.184;13.422;2023-08-30T00:26:30;5.18;;;2.13;;
81351;SDS011;70809;52.184;13.422;2023-08-30T00:27:33;2.95;;;2.55;;
81351;SDS011;70809;52.184;13.422;2023-08-30T00:28:35;4.20;;;2.42;;
81351;SDS011;70809;52.184;13.422;2023-08-30T00:29:37;3.58;;;2.20;;
81351;SDS011;70809;52.184;13.422;2023-08-30T00:30:39;5.90;;;2.58;;
81351;SDS011;70809;52.184;13.422;2023-08-30T00:31:41;5.00;;;2.90;;
81351;SDS011;70809;52.184;13.422;2023-08-30T00:32:44;4.90;;;2.20;;
81351;SDS011;70809;52.184;13.422;2023-08-30T00:33:46;5.50;;;2.75;;
81351;SDS011;70809;52.184;13.422;2023-08-30T00:34:49;3.42;;;2.28;;
81351;SDS011;70809;52.184;13.422;2023-08-30T00:35:57;2.90;;;2.40;;
81351;SDS011;70809;52.184;13.422;2023-08-30T00:36:59;4.70;;;2.78;;
81351;SDS011;70809;52.184;13.422;2023-08-30T00:38:01;4.53;;;2.40;;
81351;SDS011;70809;52.184;13.422;2023-08-30T00:39:03;4.82;;;2.42;;
81351;SDS011;70809;52.184;13.422;2023-08-30T00:40:05;3.58;;;2.10;;
81351;SDS011;70809;52.184;13.422;2023-08-30T00:41:07;3.53;;;2.33;;
81351;SDS011;70809;52.184;13.422;2023-08-30T00:42:09;3.80;;;2.28;;
81351;SDS011;70809;52.184;13.422;2023-08-30T00:43:11;3.60;;;2.20;;
81351;SDS011;70809;52.184;13.422;2023-08-30T00:44:13;3.55;;;2.60;;
81351;SDS011;70809;52.184;13.422;2023-08-30T00:45:15;7.30;;;2.45;;
81351;SDS011;70809;52.184;13.422;2023-08-30T00:46:16;3.70;;;2.60;;
81351;SDS011;70809;52.184;13.422;2023-08-30T00:47:19;4.63;;;2.90;;
81351;SDS011;70809;52.184;13.422;2023-08-30T00:48:27;3.10;;;2.50;;
81351;SDS011;70809;52.184;13.422;2023-08-30T00:49:29;6.13;;;2.80;;
81351;SDS011;70809;52.184;13.422;2023-08-30T00:50:32;15.40;;;3.17;;
81351;SDS011;70809;52.184;13.422;2023-08-30T00:51:34;4.60;;;2.70;;
81351;SDS011;70809;52.184;13.422;2023-08-30T00:52:35;3.63;;;2.45;;
81351;SDS011;70809;52.184;13.422;2023-08-30T00:53:37;4.60;;;2.55;;
81351;SDS011;70809;52.184;13.422;2023-08-30T00:54:39;3.47;;;2.55;;
81351;SDS011;70809;52.184;13.422;2023-08-30T00:55:42;5.30;;;2.42;;
81351;SDS011;70809;52.184;13.422;2023-08-30T00:56:44;4.05;;;2.70;;
81351;SDS011;70809;52.184;13.422;2023-08-30T00:57:46;7.88;;;2.90;;
81351;SDS011;70809;52.184;13.422;2023-08-30T00:58:49;3.83;;;2.60;;
81351;SDS011;70809;52.184;13.422;2023-08-30T00:59:51;4.53;;;2.40;;
81351;SDS011;70809;52.184;13.422;2023-08-30T01:00:55;4.43;;;2.78;;
81351;SDS011;70809;52.184;13.422;2023-08-30T01:01:57;4.43;;;3.13;;
81351;SDS011;70809;52.184;13.422;2023-08-30T01:02:59;5.80;;;3.30;;
81351;SDS011;70809;52.184;13.422;2023-08-30T01:04:03;7.90;;;3.13;;
81351;SDS011;70809;52.184;13.422;2023-08-30T01:05:05;3.47;;;2.50;;
81351;SDS011;70809;52.184;13.422;2023-08-30T01:06:07;5.50;;;2.72;;
81351;SDS011;70809;52.184;13.422;2023-08-30T01:08:12;5.05;;;3.13;;
81351;SDS011;70809;52.184;13.422;2023-08-30T01:09:15;6.00;;;3.10;;
81351;SDS011;70809;52.184;13.422;2023-08-30T01:10:17;5.35;;;2.70;;
81351;SDS011;70809;52.184;13.422;2023-08-30T01:11:22;4.85;;;2.90;;
81351;SDS011;70809;52.184;13.422;2023-08-30T01:12:32;3.80;;;2.70;;
81351;SDS011;70809;52.184;13.422;2023-08-30T01:13:40;7.35;;;3.70;;
81351;SDS011;70809;52.184;13.422;2023-08-30T01:14:49;3.72;;;2.90;;
81351;SDS011;70809;52.184;13.422;2023-08-30T01:15:58;5.70;;;3.40;;
81351;SDS011;70809;52.184;13.422;2023-08-30T01:17:00;7.53;;;3.25;;
81351;SDS011;70809;52.184;13.422;2023-08-30T01:18:02;8.43;;;4.18;;
81351;SDS011;70809;52.184;13.422;2023-08-30T01:20:18;5.32;;;3.95;;
81351;SDS011;70809;52.184;13.422;2023-08-30T01:21:23;4.88;;;3.28;;
81351;SDS011;70809;52.184;13.422;2023-08-30T01:22:38;5.70;;;3.38;;
81351;SDS011;70809;52.184;13.422;2023-08-30T01:23:47;4.70;;;2.55;;
81351;SDS011;70809;52.184;13.422;2023-08-30T01:24:57;3.78;;;2.70;;
81351;SDS011;70809;52.184;13.422;2023-08-30T01:26:13;4.53;;;2.90;;
81351;SDS011;70809;52.184;13.422;2023-08-30T01:27:25;5.30;;;2.63;;
81351;SDS011;70809;52.184;13.422;2023-08-30T01:28:29;3.25;;;2.95;;
81351;SDS011;70809;52.184;13.422;2023-08-30T01:29:32;3.22;;;2.75;;
81351;SDS011;70809;52.184;13.422;2023-08-30T01:30:39;5.70;;;3.53;;
81351;SDS011;70809;52.184;13.422;2023-08-30T01:31:43;3.25;;;2.72;;
81351;SDS011;70809;52.184;13.422;2023-08-30T01:32:46;6.07;;;3.17;;
81351;SDS011;70809;52.184;13.422;2023-08-30T01:33:50;4.13;;;3.15;;
81351;SDS011;70809;52.184;13.422;2023-08-30T01:34:53;3.83;;;3.25;;
81351;SDS011;70809;52.184;13.422;2023-08-30T01:35:55;4.75;;;3.63;;
81351;SDS011;70809;52.184;13.422;2023-08-30T01:36:59;7.05;;;2.97;;
81351;SDS011;70809;52.184;13.422;2023-08-30T01:38:01;4.63;;;3.30;;
81351;SDS011;70809;52.184;13.422;2023-08-30T01:39:04;4.18;;;3.22;;
81351;SDS011;70809;52.184;13.422;2023-08-30T01:40:07;5.03;;;3.17;;
81351;SDS011;70809;52.184;13.422;2023-08-30T01:41:11;4.40;;;2.65;;
81351;SDS011;70809;52.184;13.422;2023-08-30T01:42:13;6.22;;;4.07;;
81351;SDS011;70809;52.184;13.422;2023-08-30T01:43:18;5.10;;;3.17;;
81351;SDS011;70809;52.184;13.422;2023-08-30T01:44:21;9.35;;;4.00;;
81351;SDS011;70809;52.184;13.422;2023-08-30T01:45:23;4.13;;;3.63;;
81351;SDS011;70809;52.184;13.422;2023-08-30T01:46:25;7.32;;;3.47;;
81351;SDS011;70809;52.184;13.422;2023-08-30T01:47:28;4.68;;;3.40;;
81351;SDS011;70809;52.184;13.422;2023-08-30T01:48:30;7.70;;;3.92;;
81351;SDS011;70809;52.184;13.422;2023-08-30T01:49:34;5.47;;;3.50;;
81351;SDS011;70809;52.184;13.422;2023-08-30T01:50:36;8.82;;;4.20;;
81351;SDS011;70809;52.184;13.422;2023-08-30T01:51:39;7.47;;;4.43;;
81351;SDS011;70809;52.184;13.422;2023-08-30T01:52:41;5.47;;;3.80;;
81351;SDS011;70809;52.184;13.422;2023-08-30T01:53:43;5.45;;;3.95;;
81351;SDS011;70809;52.184;13.422;2023-08-30T01:54:47;6.95;;;4.13;;
81351;SDS011;70809;52.184;13.422;2023-08-30T01:55:52;7.07;;;4.50;;
81351;SDS011;70809;52.184;13.422;2023-08-30T01:56:53;6.82;;;4.32;;
81351;SDS011;70809;52.184;13.422;2023-08-30T01:57:55;7.38;;;4.20;;
81351;SDS011;70809;52.184;13.422;2023-08-30T01:58:58;8.38;;;4.35;;
81351;SDS011;70809;52.184;13.422;2023-08-30T02:00:00;8.65;;;4.57;;
81351;SDS011;70809;52.184;13.422;2023-08-30T02:01:02;6.47;;;5.03;;
81351;SDS011;70809;52.184;13.422;2023-08-30T02:02:04;7.35;;;4.70;;
81351;SDS011;70809;52.184;13.422;2023-08-30T02:03:07;7.10;;;4.78;;
81351;SDS011;70809;52.184;13.422;2023-08-30T02:04:09;6.75;;;4.47;;
81351;SDS011;70809;52.184;13.422;2023-08-30T02:05:11;11.00;;;4.90;;
81351;SDS011;70809;52.184;13.422;2023-08-30T02:06:14;9.57;;;4.65;;
81351;SDS011;70809;52.184;13.422;2023-08-30T02:07:24;5.93;;;4.35;;
81351;SDS011;70809;52.184;13.422;2023-08-30T02:08:32;7.13;;;4.35;;
81351;SDS011;70809;52.184;13.422;2023-08-30T02:09:40;5.40;;;4.22;;
81351;SDS011;70809;52.184;13.422;2023-08-30T02:10:48;9.40;;;4.82;;
81351;SDS011;70809;52.184;13.422;2023-08-30T02:11:56;6.57;;;4.80;;
81351;SDS011;70809;52.184;13.422;2023-08-30T02:13:03;5.47;;;4.47;;
81351;SDS011;70809;52.184;13.422;2023-08-30T02:14:07;6.50;;;4.70;;
81351;SDS011;70809;52.184;13.422;2023-08-30T02:15:12;7.95;;;4.97;;
81351;SDS011;70809;52.184;13.422;2023-08-30T02:16:15;9.02;;;5.30;;
81351;SDS011;70809;52.184;13.422;2023-08-30T02:17:19;7.20;;;4.95;;
81351;SDS011;70809;52.184;13.422;2023-08-30T02:18:21;7.70;;;5.13;;
81351;SDS011;70809;52.184;13.422;2023-08-30T02:19:26;7.25;;;5.38;;
81351;SDS011;70809;52.184;13.422;2023-08-30T02:20:28;9.50;;;5.30;;
81351;SDS011;70809;52.184;13.422;2023-08-30T02:21:30;6.18;;;4.72;;
81351;SDS011;70809;52.184;13.422;2023-08-30T02:22:32;8.13;;;5.10;;
81351;SDS011;70809;52.184;13.422;2023-08-30T02:23:33;8.15;;;5.40;;
81351;SDS011;70809;52.184;13.422;2023-08-30T02:24:35;5.47;;;4.72;;
81351;SDS011;70809;52.184;13.422;2023-08-30T02:25:37;6.90;;;5.25;;
81351;SDS011;70809;52.184;13.422;2023-08-30T02:26:38;6.13;;;4.80;;
81351;SDS011;70809;52.184;13.422;2023-08-30T02:27:40;9.48;;;4.90;;
81351;SDS011;70809;52.184;13.422;2023-08-30T02:28:42;8.93;;;5.10;;
81351;SDS011;70809;52.184;13.422;2023-08-30T02:29:45;6.03;;;4.78;;
81351;SDS011;70809;52.184;13.422;2023-08-30T02:30:47;10.18;;;4.97;;
81351;SDS011;70809;52.184;13.422;2023-08-30T02:31:50;4.88;;;4.22;;
81351;SDS011;70809;52.184;13.422;2023-08-30T02:32:55;8.05;;;4.53;;
81351;SDS011;70809;52.184;13.422;2023-08-30T02:33:57;5.90;;;4.57;;
81351;SDS011;70809;52.184;13.422;2023-08-30T02:34:59;6.85;;;4.95;;
81351;SDS011;70809;52.184;13.422;2023-08-30T02:36:00;5.18;;;4.55;;
81351;SDS011;70809;52.184;13.422;2023-08-30T02:37:02;7.80;;;5.63;;
81351;SDS011;70809;52.184;13.422;2023-08-30T02:38:04;6.03;;;5.20;;
81351;SDS011;70809;52.184;13.422;2023-08-30T02:39:05;8.52;;;5.53;;
81351;SDS011;70809;52.184;13.422;2023-08-30T02:40:07;7.70;;;5.65;;
81351;SDS011;70809;52.184;13.422;2023-08-30T02:41:12;6.88;;;5.10;;
81351;SDS011;70809;52.184;13.422;2023-08-30T02:42:14;8.35;;;5.57;;
81351;SDS011;70809;52.184;13.422;2023-08-30T02:43:16;7.15;;;5.60;;
81351;SDS011;70809;52.184;13.422;2023-08-30T02:44:18;7.28;;;5.45;;
81351;SDS011;70809;52.184;13.422;2023-08-30T02:45:21;7.75;;;5.30;;
81351;SDS011;70809;52.184;13.422;2023-08-30T02:46:23;12.73;;;6.57;;
81351;SDS011;70809;52.184;13.422;2023-08-30T02:47:24;7.20;;;5.22;;
81351;SDS011;70809;52.184;13.422;2023-08-30T02:48:27;7.90;;;5.57;;
81351;SDS011;70809;52.184;13.422;2023-08-30T02:49:28;6.43;;;5.35;;
81351;SDS011;70809;52.184;13.422;2023-08-30T02:50:30;7.72;;;5.22;;
81351;SDS011;70809;52.184;13.422;2023-08-30T02:51:32;8.85;;;5.35;;
81351;SDS011;70809;52.184;13.422;2023-08-30T02:52:33;8.13;;;4.70;;
81351;SDS011;70809;52.184;13.422;2023-08-30T02:53:35;7.25;;;4.97;;
81351;SDS011;70809;52.184;13.422;2023-08-30T02:54:37;9.55;;;5.30;;
81351;SDS011;70809;52.184;13.422;2023-08-30T02:55:38;7.00;;;5.03;;
81351;SDS011;70809;52.184;13.422;2023-08-30T02:56:40;8.00;;;5.60;;
81351;SDS011;70809;52.184;13.422;2023-08-30T02:57:42;8.82;;;5.90;;
81351;SDS011;70809;52.184;13.422;2023-08-30T02:58:43;6.90;;;5.60;;
81351;SDS011;70809;52.184;13.422;2023-08-30T02:59:45;8.57;;;5.35;;
81351;SDS011;70809;52.184;13.422;2023-08-30T03:00:49;7.55;;;5.70;;
81351;SDS011;70809;52.184;13.422;2023-08-30T03:01:50;10.02;;;6.28;;
81351;SDS011;70809;52.184;13.422;2023-08-30T03:02:53;7.95;;;5.28;;
81351;SDS011;70809;52.184;13.422;2023-08-30T03:03:54;8.48;;;5.47;;
81351;SDS011;70809;52.184;13.422;2023-08-30T03:04:56;6.85;;;4.82;;
81351;SDS011;70809;52.184;13.422;2023-08-30T03:05:58;7.78;;;4.90;;
81351;SDS011;70809;52.184;13.422;2023-08-30T03:06:59;6.75;;;5.03;;
81351;SDS011;70809;52.184;13.422;2023-08-30T03:08:03;5.53;;;4.28;;
81351;SDS011;70809;52.184;13.422;2023-08-30T03:09:05;7.00;;;4.80;;
81351;SDS011;70809;52.184;13.422;2023-08-30T03:10:10;6.20;;;4.15;;
81351;SDS011;70809;52.184;13.422;2023-08-30T03:11:13;7.07;;;4.88;;
81351;SDS011;70809;52.184;13.422;2023-08-30T03:12:23;7.88;;;4.78;;
81351;SDS011;70809;52.184;13.422;2023-08-30T03:13:25;7.90;;;5.47;;
81351;SDS011;70809;52.184;13.422;2023-08-30T03:14:27;8.52;;;4.80;;
81351;SDS011;70809;52.184;13.422;2023-08-30T03:15:30;6.97;;;4.78;;
81351;SDS011;70809;52.184;13.422;2023-08-30T03:16:34;7.50;;;5.25;;
81351;SDS011;70809;52.184;13.422;2023-08-30T03:17:35;7.57;;;5.03;;
81351;SDS011;70809;52.184;13.422;2023-08-30T03:18:37;7.95;;;4.45;;
81351;SDS011;70809;52.184;13.422;2023-08-30T03:19:39;7.03;;;5.38;;
81351;SDS011;70809;52.184;13.422;2023-08-30T03:20:42;7.57;;;5.43;;
81351;SDS011;70809;52.184;13.422;2023-08-30T03:21:43;7.35;;;4.93;;
81351;SDS011;70809;52.184;13.422;2023-08-30T03:22:45;7.90;;;4.95;;
81351;SDS011;70809;52.184;13.422;2023-08-30T03:23:47;6.45;;;5.20;;
81351;SDS011;70809;52.184;13.422;2023-08-30T03:24:49;8.35;;;5.18;;
81351;SDS011;70809;52.184;13.422;2023-08-30T03:25:51;7.72;;;5.45;;
81351;SDS011;70809;52.184;13.422;2023-08-30T03:26:54;6.55;;;4.18;;
81351;SDS011;70809;52.184;13.422;2023-08-30T03:27:56;6.07;;;4.13;;
81351;SDS011;70809;52.184;13.422;2023-08-30T03:28:58;6.65;;;4.40;;
81351;SDS011;70809;52.184;13.422;2023-08-30T03:30:00;5.88;;;5.00;;
81351;SDS011;70809;52.184;13.422;2023-08-30T03:31:10;8.18;;;5.03;;
81351;SDS011;70809;52.184;13.422;2023-08-30T03:32:15;8.00;;;5.18;;
81351;SDS011;70809;52.184;13.422;2023-08-30T03:33:18;6.97;;;5.15;;
81351;SDS011;70809;52.184;13.422;2023-08-30T03:34:19;6.95;;;5.50;;
81351;SDS011;70809;52.184;13.422;2023-08-30T03:35:21;6.05;;;4.90;;
81351;SDS011;70809;52.184;13.422;2023-08-30T03:36:24;7.70;;;5.63;;
81351;SDS011;70809;52.184;13.422;2023-08-30T03:37:27;6.47;;;4.93;;
81351;SDS011;70809;52.184;13.422;2023-08-30T03:38:29;7.00;;;5.40;;
81351;SDS011;70809;52.184;13.422;2023-08-30T03:39:31;6.85;;;5.10;;
81351;SDS011;70809;52.184;13.422;2023-08-30T03:40:33;7.57;;;5.10;;
81351;SDS011;70809;52.184;13.422;2023-08-30T03:41:35;8.00;;;5.55;;
81351;SDS011;70809;52.184;13.422;2023-08-30T03:42:37;9.48;;;5.90;;
81351;SDS011;70809;52.184;13.422;2023-08-30T03:43:39;7.90;;;6.10;;
81351;SDS011;70809;52.184;13.422;2023-08-30T03:44:42;9.00;;;5.55;;
81351;SDS011;70809;52.184;13.422;2023-08-30T03:45:44;8.93;;;6.18;;
81351;SDS011;70809;52.184;13.422;2023-08-30T03:46:46;9.52;;;6.22;;
81351;SDS011;70809;52.184;13.422;2023-08-30T03:47:49;6.78;;;5.25;;
81351;SDS011;70809;52.184;13.422;2023-08-30T03:48:50;6.65;;;5.22;;
81351;SDS011;70809;52.184;13.422;2023-08-30T03:49:52;8.15;;;5.13;;
81351;SDS011;70809;52.184;13.422;2023-08-30T03:50:54;9.52;;;6.10;;
81351;SDS011;70809;52.184;13.422;2023-08-30T03:51:56;8.23;;;5.20;;
81351;SDS011;70809;52.184;13.422;2023-08-30T03:52:58;8.07;;;5.53;;
81351;SDS011;70809;52.184;13.422;2023-08-30T03:54:00;8.98;;;5.30;;
81351;SDS011;70809;52.184;13.422;2023-08-30T03:55:02;8.55;;;5.50;;
81351;SDS011;70809;52.184;13.422;2023-08-30T03:56:04;10.65;;;6.18;;
81351;SDS011;70809;52.184;13.422;2023-08-30T03:57:06;11.63;;;6.38;;
81351;SDS011;70809;52.184;13.422;2023-08-30T03:58:07;12.93;;;7.10;;
81351;SDS011;70809;52.184;13.422;2023-08-30T03:59:09;9.80;;;6.78;;
81351;SDS011;70809;52.184;13.422;2023-08-30T04:00:12;12.32;;;7.25;;
81351;SDS011;70809;52.184;13.422;2023-08-30T04:01:14;14.38;;;7.80;;
81351;SDS011;70809;52.184;13.422;2023-08-30T04:02:16;9.23;;;6.63;;
81351;SDS011;70809;52.184;13.422;2023-08-30T04:03:19;12.80;;;8.13;;
81351;SDS011;70809;52.184;13.422;2023-08-30T04:04:21;14.35;;;7.95;;
81351;SDS011;70809;52.184;13.422;2023-08-30T04:05:23;13.18;;;8.32;;
81351;SDS011;70809;52.184;13.422;2023-08-30T04:06:27;11.20;;;7.10;;
81351;SDS011;70809;52.184;13.422;2023-08-30T04:07:29;16.50;;;7.72;;
81351;SDS011;70809;52.184;13.422;2023-08-30T04:08:31;12.35;;;7.60;;
81351;SDS011;70809;52.184;13.422;2023-08-30T04:09:33;14.40;;;8.80;;
81351;SDS011;70809;52.184;13.422;2023-08-30T04:10:34;11.27;;;7.35;;
81351;SDS011;70809;52.184;13.422;2023-08-30T04:11:36;13.98;;;7.63;;
81351;SDS011;70809;52.184;13.422;2023-08-30T04:12:38;16.67;;;8.05;;
81351;SDS011;70809;52.184;13.422;2023-08-30T04:13:40;11.90;;;7.22;;
81351;SDS011;70809;52.184;13.422;2023-08-30T04:14:42;10.52;;;6.70;;
81351;SDS011;70809;52.184;13.422;2023-08-30T04:15:43;14.43;;;6.97;;
81351;SDS011;70809;52.184;13.422;2023-08-30T04:16:45;14.25;;;8.43;;
81351;SDS011;70809;52.184;13.422;2023-08-30T04:17:47;11.63;;;6.93;;
81351;SDS011;70809;52.184;13.422;2023-08-30T04:18:50;13.68;;;8.10;;
81351;SDS011;70809;52.184;13.422;2023-08-30T04:19:52;16.75;;;8.43;;
81351;SDS011;70809;52.184;13.422;2023-08-30T04:20:54;13.32;;;8.82;;
81351;SDS011;70809;52.184;13.422;2023-08-30T04:23:00;9.70;;;6.72;;
81351;SDS011;70809;52.184;13.422;2023-08-30T04:24:02;11.32;;;7.22;;
81351;SDS011;70809;52.184;13.422;2023-08-30T04:25:05;10.05;;;6.57;;
81351;SDS011;70809;52.184;13.422;2023-08-30T04:26:07;10.95;;;7.32;;
81351;SDS011;70809;52.184;13.422;2023-08-30T04:27:10;13.80;;;7.00;;
81351;SDS011;70809;52.184;13.422;2023-08-30T04:28:12;11.75;;;7.35;;
81351;SDS011;70809;52.184;13.422;2023-08-30T04:29:14;12.73;;;7.00;;
81351;SDS011;70809;52.184;13.422;2023-08-30T04:30:16;13.77;;;8.23;;
81351;SDS011;70809;52.184;13.422;2023-08-30T04:31:18;15.23;;;8.43;;
81351;SDS011;70809;52.184;13.422;2023-08-30T04:32:20;7.95;;;6.15;;
81351;SDS011;70809;52.184;13.422;2023-08-30T04:33:22;8.80;;;5.63;;
81351;SDS011;70809;52.184;13.422;2023-08-30T04:34:25;9.65;;;6.28;;
81351;SDS011;70809;52.184;13.422;2023-08-30T04:35:27;11.02;;;7.10;;
81351;SDS011;70809;52.184;13.422;2023-08-30T04:36:30;11.02;;;7.00;;
81351;SDS011;70809;52.184;13.422;2023-08-30T04:37:32;10.73;;;6.75;;
81351;SDS011;70809;52.184;13.422;2023-08-30T04:38:34;12.27;;;7.30;;
81351;SDS011;70809;52.184;13.422;2023-08-30T04:39:47;14.50;;;6.97;;
81351;SDS011;70809;52.184;13.422;2023-08-30T04:40:48;11.20;;;7.18;;
81351;SDS011;70809;52.184;13.422;2023-08-30T04:41:50;13.95;;;7.57;;
81351;SDS011;70809;52.184;13.422;2023-08-30T04:42:52;11.32;;;7.13;;
81351;SDS011;70809;52.184;13.422;2023-08-30T04:43:53;10.52;;;7.07;;
81351;SDS011;70809;52.184;13.422;2023-08-30T04:44:55;14.05;;;7.47;;
81351;SDS011;70809;52.184;13.422;2023-08-30T04:45:57;12.15;;;7.05;;
81351;SDS011;70809;52.184;13.422;2023-08-30T04:46:59;9.23;;;6.18;;
81351;SDS011;70809;52.184;13.422;2023-08-30T04:48:01;9.70;;;6.88;;
81351;SDS011;70809;52.184;13.422;2023-08-30T04:49:03;11.90;;;7.22;;
81351;SDS011;70809;52.184;13.422;2023-08-30T04:50:09;12.90;;;7.93;;
81351;SDS011;70809;52.184;13.422;2023-08-30T04:51:11;10.73;;;6.60;;
81351;SDS011;70809;52.184;13.422;2023-08-30T04:52:13;11.70;;;7.35;;
81351;SDS011;70809;52.184;13.422;2023-08-30T04:53:14;12.57;;;7.05;;
81351;SDS011;70809;52.184;13.422;2023-08-30T04:54:16;18.00;;;8.98;;
81351;SDS011;70809;52.184;13.422;2023-08-30T04:55:20;8.02;;;6.00;;
81351;SDS011;70809;52.184;13.422;2023-08-30T04:56:22;12.77;;;7.60;;
81351;SDS011;70809;52.184;13.422;2023-08-30T04:57:23;8.93;;;6.57;;
81351;SDS011;70809;52.184;13.422;2023-08-30T04:58:25;15.50;;;8.05;;
81351;SDS011;70809;52.184;13.422;2023-08-30T04:59:27;14.27;;;7.60;;
81351;SDS011;70809;52.184;13.422;2023-08-30T05:00:30;9.95;;;7.10;;
81351;SDS011;70809;52.184;13.422;2023-08-30T05:01:32;10.95;;;7.18;;
81351;SDS011;70809;52.184;13.422;2023-08-30T05:02:35;11.25;;;7.82;;
81351;SDS011;70809;52.184;13.422;2023-08-30T05:03:43;16.67;;;8.38;;
81351;SDS011;70809;52.184;13.422;2023-08-30T05:04:47;9.02;;;6.20;;
81351;SDS011;70809;52.184;13.422;2023-08-30T05:05:50;9.13;;;6.18;;
81351;SDS011;70809;52.184;13.422;2023-08-30T05:06:52;9.05;;;6.10;;
81351;SDS011;70809;52.184;13.422;2023-08-30T05:07:55;8.60;;;5.15;;
81351;SDS011;70809;52.184;13.422;2023-08-30T05:08:56;9.88;;;5.38;;
81351;SDS011;70809;52.184;13.422;2023-08-30T05:09:58;9.80;;;5.18;;
81351;SDS011;70809;52.184;13.422;2023-08-30T05:10:59;8.27;;;5.38;;
81351;SDS011;70809;52.184;13.422;2023-08-30T05:12:01;7.47;;;5.55;;
81351;SDS011;70809;52.184;13.422;2023-08-30T05:13:04;11.68;;;6.35;;
81351;SDS011;70809;52.184;13.422;2023-08-30T05:14:06;8.60;;;5.97;;
81351;SDS011;70809;52.184;13.422;2023-08-30T05:15:08;8.63;;;6.30;;
81351;SDS011;70809;52.184;13.422;2023-08-30T05:16:10;6.63;;;5.75;;
81351;SDS011;70809;52.184;13.422;2023-08-30T05:17:14;6.88;;;5.43;;
81351;SDS011;70809;52.184;13.422;2023-08-30T05:18:18;8.32;;;5.45;;
81351;SDS011;70809;52.184;13.422;2023-08-30T05:19:21;7.07;;;5.60;;
81351;SDS011;70809;52.184;13.422;2023-08-30T05:20:23;9.35;;;5.72;;
81351;SDS011;70809;52.184;13.422;2023-08-30T05:21:26;8.18;;;5.57;;
81351;SDS011;70809;52.184;13.422;2023-08-30T05:22:28;8.45;;;5.95;;
81351;SDS011;70809;52.184;13.422;2023-08-30T05:23:29;7.53;;;5.75;;
81351;SDS011;70809;52.184;13.422;2023-08-30T05:24:31;6.90;;;5.38;;
81351;SDS011;70809;52.184;13.422;2023-08-30T05:25:33;11.20;;;5.70;;
81351;SDS011;70809;52.184;13.422;2023-08-30T05:26:36;10.77;;;6.93;;
81351;SDS011;70809;52.184;13.422;2023-08-30T05:27:37;7.68;;;5.50;;
81351;SDS011;70809;52.184;13.422;2023-08-30T05:28:39;9.15;;;6.28;;
81351;SDS011;70809;52.184;13.422;2023-08-30T05:29:41;7.07;;;5.60;;
81351;SDS011;70809;52.184;13.422;2023-08-30T05:30:43;7.50;;;5.85;;
81351;SDS011;70809;52.184;13.422;2023-08-30T05:31:50;8.98;;;6.40;;
81351;SDS011;70809;52.184;13.422;2023-08-30T05:33:15;9.05;;;5.45;;
81351;SDS011;70809;52.184;13.422;2023-08-30T05:34:37;9.63;;;6.60;;
81351;SDS011;70809;52.184;13.422;2023-08-30T05:35:51;7.70;;;5.53;;
81351;SDS011;70809;52.184;13.422;2023-08-30T05:37:03;11.85;;;6.57;;
81351;SDS011;70809;52.184;13.422;2023-08-30T05:38:24;10.15;;;6.60;;
81351;SDS011;70809;52.184;13.422;2023-08-30T05:39:35;10.50;;;6.50;;
81351;SDS011;70809;52.184;13.422;2023-08-30T05:40:37;11.40;;;7.95;;
81351;SDS011;70809;52.184;13.422;2023-08-30T05:41:39;10.10;;;7.60;;
81351;SDS011;70809;52.184;13.422;2023-08-30T05:42:40;9.75;;;6.93;;
81351;SDS011;70809;52.184;13.422;2023-08-30T05:43:42;10.90;;;7.05;;
81351;SDS011;70809;52.184;13.422;2023-08-30T05:44:44;10.25;;;7.53;;
81351;SDS011;70809;52.184;13.422;2023-08-30T05:45:46;11.57;;;8.10;;
81351;SDS011;70809;52.184;13.422;2023-08-30T05:46:48;10.25;;;6.43;;
81351;SDS011;70809;52.184;13.422;2023-08-30T05:47:50;11.15;;;5.72;;
81351;SDS011;70809;52.184;13.422;2023-08-30T05:48:52;11.20;;;6.18;;
81351;SDS011;70809;52.184;13.422;2023-08-30T05:49:53;11.35;;;7.65;;
81351;SDS011;70809;52.184;13.422;2023-08-30T05:50:55;11.02;;;7.07;;
81351;SDS011;70809;52.184;13.422;2023-08-30T05:51:57;10.70;;;7.32;;
81351;SDS011;70809;52.184;13.422;2023-08-30T05:53:00;9.68;;;7.15;;
81351;SDS011;70809;52.184;13.422;2023-08-30T05:54:02;7.80;;;5.70;;
81351;SDS011;70809;52.184;13.422;2023-08-30T05:55:04;7.63;;;5.47;;
81351;SDS011;70809;52.184;13.422;2023-08-30T05:56:06;9.30;;;5.20;;
81351;SDS011;70809;52.184;13.422;2023-08-30T05:57:09;7.15;;;4.68;;
81351;SDS011;70809;52.184;13.422;2023-08-30T05:58:11;5.78;;;4.03;;
81351;SDS011;70809;52.184;13.422;2023-08-30T05:59:13;7.72;;;4.80;;
81351;SDS011;70809;52.184;13.422;2023-08-30T06:00:15;7.55;;;4.88;;
81351;SDS011;70809;52.184;13.422;2023-08-30T06:01:17;6.55;;;4.55;;
81351;SDS011;70809;52.184;13.422;2023-08-30T06:02:20;6.45;;;5.13;;
81351;SDS011;70809;52.184;13.422;2023-08-30T06:03:22;6.95;;;4.78;;
81351;SDS011;70809;52.184;13.422;2023-08-30T06:04:23;8.15;;;5.78;;
81351;SDS011;70809;52.184;13.422;2023-08-30T06:05:25;6.22;;;5.13;;
81351;SDS011;70809;52.184;13.422;2023-08-30T06:06:27;8.20;;;6.18;;
81351;SDS011;70809;52.184;13.422;2023-08-30T06:07:29;7.40;;;5.65;;
81351;SDS011;70809;52.184;13.422;2023-08-30T06:08:32;7.38;;;5.65;;
81351;SDS011;70809;52.184;13.422;2023-08-30T06:09:34;7.15;;;4.97;;
81351;SDS011;70809;52.184;13.422;2023-08-30T06:10:35;5.25;;;4.72;;
81351;SDS011;70809;52.184;13.422;2023-08-30T06:11:37;6.22;;;4.60;;
81351;SDS011;70809;52.184;13.422;2023-08-30T06:12:39;6.60;;;3.90;;
81351;SDS011;70809;52.184;13.422;2023-08-30T06:13:40;6.38;;;4.32;;
81351;SDS011;70809;52.184;13.422;2023-08-30T06:14:43;5.70;;;4.28;;
81351;SDS011;70809;52.184;13.422;2023-08-30T06:15:44;5.82;;;4.90;;